KRTN/RTN METAR and TAF weather

Enter ICAO airport designator
Station Type Date Time Source
KRTN METAR 2019/06/26 05:53 UTC NOAA

KRTN 260553Z AUTO 22008KT 10SM CLR 18/09 A3020 RMK AO2 SLP129 T01780089 10294 20178 52031


Station Type Date Time Source
KRTN Decoded METAR 2019/06/26 05:53 UTC NOAA

Raton, Raton Municipal \ Crews Field Airport, NM, United States (KRTN) 36-44-31N 104-39-28W 1939M
Jun 26, 2019 - 01:53 AM EDT / 2019.06.26 0553 UTC
Wind: from the SW (220 degrees) at 9 MPH (8 KT):0
Visibility: 10 mile(s):0
Sky conditions: clear
Temperature: 64.0 F (17.8 C)
Dew Point: 48.0 F (8.9 C)
Relative Humidity: 55%
Pressure (altimeter): 30.2 in. Hg (1022 hPa)
Pressure tendency: 0.09 inches (3.1 hPa) higher than three hours ago
ob: KRTN 260553Z AUTO 22008KT 10SM CLR 18/09 A3020 RMK AO2 SLP129 T01780089 10294 20178 52031
cycle: 6

Station Type Date Time Source
KRTN TAF UTC NOAA

Error!

Example: see airport list